sensor_id;sensor_type;location;lat;lon;timestamp;temperature;humidity
8178;DHT22;4130;48.740;9.132;2024-02-04T00:00:54;7.40;99.90
8178;DHT22;4130;48.740;9.132;2024-02-04T00:03:21;7.40;99.90
8178;DHT22;4130;48.740;9.132;2024-02-04T00:05:49;7.30;99.90
8178;DHT22;4130;48.740;9.132;2024-02-04T00:08:16;7.30;99.90
8178;DHT22;4130;48.740;9.132;2024-02-04T00:10:43;7.40;99.90
8178;DHT22;4130;48.740;9.132;2024-02-04T00:13:10;7.40;99.90
8178;DHT22;4130;48.740;9.132;2024-02-04T00:15:37;7.40;99.90
8178;DHT22;4130;48.740;9.132;2024-02-04T00:18:06;7.30;99.90
8178;DHT22;4130;48.740;9.132;2024-02-04T00:20:33;6.80;99.90
8178;DHT22;4130;48.740;9.132;2024-02-04T00:23:00;7.30;99.90
8178;DHT22;4130;48.740;9.132;2024-02-04T00:25:27;7.30;99.90
8178;DHT22;4130;48.740;9.132;2024-02-04T00:27:54;7.30;99.90
8178;DHT22;4130;48.740;9.132;2024-02-04T00:30:22;7.30;99.90
8178;DHT22;4130;48.740;9.132;2024-02-04T00:32:49;7.20;99.90
8178;DHT22;4130;48.740;9.132;2024-02-04T00:35:17;7.10;99.90
8178;DHT22;4130;48.740;9.132;2024-02-04T00:37:44;7.00;99.90
8178;DHT22;4130;48.740;9.132;2024-02-04T00:40:11;6.90;99.90
8178;DHT22;4130;48.740;9.132;2024-02-04T00:42:38;6.80;99.90
8178;DHT22;4130;48.740;9.132;2024-02-04T00:45:06;6.70;99.90
8178;DHT22;4130;48.740;9.132;2024-02-04T00:47:33;6.60;99.90
8178;DHT22;4130;48.740;9.132;2024-02-04T00:50:00;6.70;99.90
8178;DHT22;4130;48.740;9.132;2024-02-04T00:52:28;6.60;99.90
8178;DHT22;4130;48.740;9.132;2024-02-04T00:54:55;6.60;99.90
8178;DHT22;4130;48.740;9.132;2024-02-04T00:57:23;6.60;99.90
8178;DHT22;4130;48.740;9.132;2024-02-04T00:59:51;6.60;99.90
8178;DHT22;4130;48.740;9.132;2024-02-04T01:02:18;6.60;99.90
8178;DHT22;4130;48.740;9.132;2024-02-04T01:04:45;6.60;99.90
8178;DHT22;4130;48.740;9.132;2024-02-04T01:07:12;6.60;99.90
8178;DHT22;4130;48.740;9.132;2024-02-04T01:09:40;6.70;99.90
8178;DHT22;4130;48.740;9.132;2024-02-04T01:12:08;6.70;99.90
8178;DHT22;4130;48.740;9.132;2024-02-04T01:14:35;6.70;99.90
8178;DHT22;4130;48.740;9.132;2024-02-04T01:17:02;6.70;99.90
8178;DHT22;4130;48.740;9.132;2024-02-04T01:19:29;6.70;99.90
8178;DHT22;4130;48.740;9.132;2024-02-04T01:21:56;6.60;99.90
8178;DHT22;4130;48.740;9.132;2024-02-04T01:24:24;6.60;99.90
8178;DHT22;4130;48.740;9.132;2024-02-04T01:26:53;6.70;99.90
8178;DHT22;4130;48.740;9.132;2024-02-04T01:29:19;6.60;99.90
8178;DHT22;4130;48.740;9.132;2024-02-04T01:31:46;6.60;99.90
8178;DHT22;4130;48.740;9.132;2024-02-04T01:34:13;6.60;99.90
8178;DHT22;4130;48.740;9.132;2024-02-04T01:36:40;6.50;99.90
8178;DHT22;4130;48.740;9.132;2024-02-04T01:39:07;6.50;99.90
8178;DHT22;4130;48.740;9.132;2024-02-04T01:41:35;6.50;99.90
8178;DHT22;4130;48.740;9.132;2024-02-04T01:44:05;6.50;99.90
8178;DHT22;4130;48.740;9.132;2024-02-04T01:46:32;6.40;99.90
8178;DHT22;4130;48.740;9.132;2024-02-04T01:48:59;6.40;99.90
8178;DHT22;4130;48.740;9.132;2024-02-04T01:51:27;6.40;99.90
8178;DHT22;4130;48.740;9.132;2024-02-04T01:53:54;6.50;99.90
8178;DHT22;4130;48.740;9.132;2024-02-04T01:56:22;6.50;99.90
8178;DHT22;4130;48.740;9.132;2024-02-04T01:58:49;6.50;99.90
8178;DHT22;4130;48.740;9.132;2024-02-04T02:01:17;6.50;99.90
8178;DHT22;4130;48.740;9.132;2024-02-04T02:03:44;6.50;99.90
8178;DHT22;4130;48.740;9.132;2024-02-04T02:06:12;6.50;99.90
8178;DHT22;4130;48.740;9.132;2024-02-04T02:08:41;6.60;99.90
8178;DHT22;4130;48.740;9.132;2024-02-04T02:11:23;6.60;99.90
8178;DHT22;4130;48.740;9.132;2024-02-04T02:13:59;6.70;99.90
8178;DHT22;4130;48.740;9.132;2024-02-04T02:16:31;6.70;99.90
8178;DHT22;4130;48.740;9.132;2024-02-04T02:19:03;6.80;99.90
8178;DHT22;4130;48.740;9.132;2024-02-04T02:21:44;6.80;99.90
8178;DHT22;4130;48.740;9.132;2024-02-04T02:26:45;6.70;99.90
8178;DHT22;4130;48.740;9.132;2024-02-04T02:29:12;6.60;99.90
8178;DHT22;4130;48.740;9.132;2024-02-04T02:31:40;6.60;99.90
8178;DHT22;4130;48.740;9.132;2024-02-04T02:34:09;6.60;99.90
8178;DHT22;4130;48.740;9.132;2024-02-04T02:36:42;6.60;99.90
8178;DHT22;4130;48.740;9.132;2024-02-04T02:39:15;6.60;99.90
8178;DHT22;4130;48.740;9.132;2024-02-04T02:41:42;6.60;99.90
8178;DHT22;4130;48.740;9.132;2024-02-04T02:44:13;6.60;99.90
8178;DHT22;4130;48.740;9.132;2024-02-04T02:46:40;6.60;99.90
8178;DHT22;4130;48.740;9.132;2024-02-04T02:49:08;6.70;99.90
8178;DHT22;4130;48.740;9.132;2024-02-04T02:51:35;6.70;99.90
8178;DHT22;4130;48.740;9.132;2024-02-04T02:54:02;6.70;99.90
8178;DHT22;4130;48.740;9.132;2024-02-04T02:56:29;6.70;99.90
8178;DHT22;4130;48.740;9.132;2024-02-04T02:58:56;6.70;99.90
8178;DHT22;4130;48.740;9.132;2024-02-04T03:01:24;6.70;99.90
8178;DHT22;4130;48.740;9.132;2024-02-04T03:03:51;6.70;99.90
8178;DHT22;4130;48.740;9.132;2024-02-04T03:06:18;6.70;99.90
8178;DHT22;4130;48.740;9.132;2024-02-04T03:08:45;6.70;99.90
8178;DHT22;4130;48.740;9.132;2024-02-04T03:11:12;6.80;99.90
8178;DHT22;4130;48.740;9.132;2024-02-04T03:13:39;6.70;99.90
8178;DHT22;4130;48.740;9.132;2024-02-04T03:16:10;6.70;99.90
8178;DHT22;4130;48.740;9.132;2024-02-04T03:18:40;6.70;99.90
8178;DHT22;4130;48.740;9.132;2024-02-04T03:21:12;6.70;99.90
8178;DHT22;4130;48.740;9.132;2024-02-04T03:23:40;6.80;99.90
8178;DHT22;4130;48.740;9.132;2024-02-04T03:26:07;6.70;99.90
8178;DHT22;4130;48.740;9.132;2024-02-04T03:28:34;6.80;99.90
8178;DHT22;4130;48.740;9.132;2024-02-04T03:31:02;6.80;99.90
8178;DHT22;4130;48.740;9.132;2024-02-04T03:33:29;6.80;99.90
8178;DHT22;4130;48.740;9.132;2024-02-04T03:35:58;6.90;99.90
8178;DHT22;4130;48.740;9.132;2024-02-04T03:38:24;6.90;99.90
8178;DHT22;4130;48.740;9.132;2024-02-04T03:40:52;6.90;99.90
8178;DHT22;4130;48.740;9.132;2024-02-04T03:43:19;6.90;99.90
8178;DHT22;4130;48.740;9.132;2024-02-04T03:45:46;6.90;99.90
8178;DHT22;4130;48.740;9.132;2024-02-04T03:48:13;6.90;99.90
8178;DHT22;4130;48.740;9.132;2024-02-04T03:50:40;6.90;99.90
8178;DHT22;4130;48.740;9.132;2024-02-04T03:53:08;7.00;99.90
8178;DHT22;4130;48.740;9.132;2024-02-04T03:55:35;7.00;99.90
8178;DHT22;4130;48.740;9.132;2024-02-04T03:58:03;7.00;99.90
8178;DHT22;4130;48.740;9.132;2024-02-04T04:00:30;6.90;99.90
8178;DHT22;4130;48.740;9.132;2024-02-04T04:02:57;7.00;99.90
8178;DHT22;4130;48.740;9.132;2024-02-04T04:05:23;7.00;99.90
8178;DHT22;4130;48.740;9.132;2024-02-04T04:07:51;7.00;99.90
8178;DHT22;4130;48.740;9.132;2024-02-04T04:10:20;7.00;99.90
8178;DHT22;4130;48.740;9.132;2024-02-04T04:12:47;7.10;99.90
8178;DHT22;4130;48.740;9.132;2024-02-04T04:15:14;7.10;99.90
8178;DHT22;4130;48.740;9.132;2024-02-04T04:17:41;7.10;99.90
8178;DHT22;4130;48.740;9.132;2024-02-04T04:20:08;7.10;99.90
8178;DHT22;4130;48.740;9.132;2024-02-04T04:22:35;7.10;99.90
8178;DHT22;4130;48.740;9.132;2024-02-04T04:25:05;7.10;99.90
8178;DHT22;4130;48.740;9.132;2024-02-04T04:27:33;7.10;99.90
8178;DHT22;4130;48.740;9.132;2024-02-04T04:30:00;7.20;99.90
8178;DHT22;4130;48.740;9.132;2024-02-04T04:32:27;7.20;99.90
8178;DHT22;4130;48.740;9.132;2024-02-04T04:34:54;7.20;99.90
8178;DHT22;4130;48.740;9.132;2024-02-04T04:37:21;7.10;99.90
8178;DHT22;4130;48.740;9.132;2024-02-04T04:39:48;7.10;99.90
8178;DHT22;4130;48.740;9.132;2024-02-04T04:42:15;7.00;99.90
8178;DHT22;4130;48.740;9.132;2024-02-04T04:44:44;7.00;99.90
8178;DHT22;4130;48.740;9.132;2024-02-04T04:47:11;7.00;99.90
8178;DHT22;4130;48.740;9.132;2024-02-04T04:49:38;6.90;99.90
8178;DHT22;4130;48.740;9.132;2024-02-04T04:52:05;6.90;99.90
8178;DHT22;4130;48.740;9.132;2024-02-04T04:54:32;6.90;99.90
8178;DHT22;4130;48.740;9.132;2024-02-04T04:56:59;6.80;99.90
8178;DHT22;4130;48.740;9.132;2024-02-04T04:59:26;6.80;99.90
8178;DHT22;4130;48.740;9.132;2024-02-04T05:01:54;6.70;99.90
8178;DHT22;4130;48.740;9.132;2024-02-04T05:04:21;6.70;99.90
8178;DHT22;4130;48.740;9.132;2024-02-04T05:06:50;6.60;99.90
8178;DHT22;4130;48.740;9.132;2024-02-04T05:09:17;6.60;99.90
8178;DHT22;4130;48.740;9.132;2024-02-04T05:11:44;6.60;99.90
8178;DHT22;4130;48.740;9.132;2024-02-04T05:14:11;6.60;99.90
8178;DHT22;4130;48.740;9.132;2024-02-04T05:16:38;6.60;99.90
8178;DHT22;4130;48.740;9.132;2024-02-04T05:19:06;6.60;99.90
8178;DHT22;4130;48.740;9.132;2024-02-04T05:21:33;6.70;99.90
8178;DHT22;4130;48.740;9.132;2024-02-04T05:24:00;6.70;99.90
8178;DHT22;4130;48.740;9.132;2024-02-04T05:26:27;6.70;99.90
8178;DHT22;4130;48.740;9.132;2024-02-04T05:28:54;6.80;99.90
8178;DHT22;4130;48.740;9.132;2024-02-04T05:31:21;6.80;99.90
8178;DHT22;4130;48.740;9.132;2024-02-04T05:33:48;6.80;99.90
8178;DHT22;4130;48.740;9.132;2024-02-04T05:36:16;6.80;99.90
8178;DHT22;4130;48.740;9.132;2024-02-04T05:38:44;6.80;99.90
8178;DHT22;4130;48.740;9.132;2024-02-04T05:41:11;6.80;99.90
8178;DHT22;4130;48.740;9.132;2024-02-04T05:43:39;6.80;99.90
8178;DHT22;4130;48.740;9.132;2024-02-04T05:46:06;6.80;99.90
8178;DHT22;4130;48.740;9.132;2024-02-04T05:48:33;6.80;99.90
8178;DHT22;4130;48.740;9.132;2024-02-04T05:51:00;6.80;99.90
8178;DHT22;4130;48.740;9.132;2024-02-04T05:53:28;6.80;99.90
8178;DHT22;4130;48.740;9.132;2024-02-04T05:55:55;6.90;99.90
8178;DHT22;4130;48.740;9.132;2024-02-04T05:58:22;6.90;99.90
8178;DHT22;4130;48.740;9.132;2024-02-04T06:00:48;6.90;99.90
8178;DHT22;4130;48.740;9.132;2024-02-04T06:03:16;6.80;99.90
8178;DHT22;4130;48.740;9.132;2024-02-04T06:05:43;6.80;99.90
8178;DHT22;4130;48.740;9.132;2024-02-04T06:08:09;6.80;99.90
8178;DHT22;4130;48.740;9.132;2024-02-04T06:10:38;6.80;99.90
8178;DHT22;4130;48.740;9.132;2024-02-04T06:13:04;6.70;99.90
8178;DHT22;4130;48.740;9.132;2024-02-04T06:15:32;6.70;99.90
8178;DHT22;4130;48.740;9.132;2024-02-04T06:18:01;6.70;99.90
8178;DHT22;4130;48.740;9.132;2024-02-04T06:20:28;6.70;99.90
8178;DHT22;4130;48.740;9.132;2024-02-04T06:22:54;6.70;99.90
8178;DHT22;4130;48.740;9.132;2024-02-04T06:25:23;6.70;99.90
8178;DHT22;4130;48.740;9.132;2024-02-04T06:27:51;6.70;99.90
8178;DHT22;4130;48.740;9.132;2024-02-04T06:30:18;6.70;99.90
8178;DHT22;4130;48.740;9.132;2024-02-04T06:32:47;6.70;99.90
8178;DHT22;4130;48.740;9.132;2024-02-04T06:35:16;6.70;99.90
8178;DHT22;4130;48.740;9.132;2024-02-04T06:37:43;6.70;99.90
8178;DHT22;4130;48.740;9.132;2024-02-04T06:40:10;6.70;99.90
8178;DHT22;4130;48.740;9.132;2024-02-04T06:42:37;6.70;99.90
8178;DHT22;4130;48.740;9.132;2024-02-04T06:45:07;6.70;99.90
8178;DHT22;4130;48.740;9.132;2024-02-04T06:47:34;6.70;99.90
8178;DHT22;4130;48.740;9.132;2024-02-04T06:50:01;6.60;99.90
8178;DHT22;4130;48.740;9.132;2024-02-04T06:52:31;6.60;99.90
8178;DHT22;4130;48.740;9.132;2024-02-04T06:54:58;6.60;99.90
8178;DHT22;4130;48.740;9.132;2024-02-04T06:57:25;6.60;99.90
8178;DHT22;4130;48.740;9.132;2024-02-04T06:59:52;6.50;99.90
8178;DHT22;4130;48.740;9.132;2024-02-04T07:02:20;6.60;99.90
8178;DHT22;4130;48.740;9.132;2024-02-04T07:04:47;6.50;99.90
8178;DHT22;4130;48.740;9.132;2024-02-04T07:07:14;6.60;99.90
8178;DHT22;4130;48.740;9.132;2024-02-04T07:09:41;6.60;99.90
8178;DHT22;4130;48.740;9.132;2024-02-04T07:12:08;6.60;99.90
8178;DHT22;4130;48.740;9.132;2024-02-04T07:14:35;6.60;99.90
8178;DHT22;4130;48.740;9.132;2024-02-04T07:17:02;6.60;99.90
8178;DHT22;4130;48.740;9.132;2024-02-04T07:19:31;6.70;99.90
8178;DHT22;4130;48.740;9.132;2024-02-04T07:21:58;6.70;99.90
8178;DHT22;4130;48.740;9.132;2024-02-04T07:24:25;6.70;99.90
8178;DHT22;4130;48.740;9.132;2024-02-04T07:26:52;6.60;99.90
8178;DHT22;4130;48.740;9.132;2024-02-04T07:29:19;6.60;99.90
8178;DHT22;4130;48.740;9.132;2024-02-04T07:31:46;6.60;99.90
8178;DHT22;4130;48.740;9.132;2024-02-04T07:34:13;6.60;99.90
8178;DHT22;4130;48.740;9.132;2024-02-04T07:36:41;6.60;99.90
8178;DHT22;4130;48.740;9.132;2024-02-04T07:39:09;6.60;99.90
8178;DHT22;4130;48.740;9.132;2024-02-04T07:41:36;6.60;99.90
8178;DHT22;4130;48.740;9.132;2024-02-04T07:44:03;6.60;99.90
8178;DHT22;4130;48.740;9.132;2024-02-04T07:46:30;6.60;99.90
8178;DHT22;4130;48.740;9.132;2024-02-04T07:48:57;6.70;99.90
8178;DHT22;4130;48.740;9.132;2024-02-04T07:51:24;6.70;99.90
8178;DHT22;4130;48.740;9.132;2024-02-04T07:53:52;6.80;99.90
8178;DHT22;4130;48.740;9.132;2024-02-04T07:56:19;6.90;99.90
8178;DHT22;4130;48.740;9.132;2024-02-04T07:58:46;6.90;99.90
8178;DHT22;4130;48.740;9.132;2024-02-04T08:01:13;6.90;99.90
8178;DHT22;4130;48.740;9.132;2024-02-04T08:03:40;6.90;99.90
8178;DHT22;4130;48.740;9.132;2024-02-04T08:06:07;6.90;99.90
8178;DHT22;4130;48.740;9.132;2024-02-04T08:08:35;6.90;99.90
8178;DHT22;4130;48.740;9.132;2024-02-04T08:11:03;6.90;99.90
8178;DHT22;4130;48.740;9.132;2024-02-04T08:13:30;7.10;99.90
8178;DHT22;4130;48.740;9.132;2024-02-04T08:15:57;7.10;99.90
8178;DHT22;4130;48.740;9.132;2024-02-04T08:18:24;7.10;99.90
8178;DHT22;4130;48.740;9.132;2024-02-04T08:20:51;7.10;99.90
8178;DHT22;4130;48.740;9.132;2024-02-04T08:23:18;7.10;99.90
8178;DHT22;4130;48.740;9.132;2024-02-04T08:25:45;7.10;99.90
8178;DHT22;4130;48.740;9.132;2024-02-04T08:28:14;7.10;99.90
8178;DHT22;4130;48.740;9.132;2024-02-04T08:30:41;7.10;99.90
8178;DHT22;4130;48.740;9.132;2024-02-04T08:33:08;7.10;99.90
8178;DHT22;4130;48.740;9.132;2024-02-04T08:35:35;7.20;99.90
8178;DHT22;4130;48.740;9.132;2024-02-04T08:38:02;7.20;99.90
8178;DHT22;4130;48.740;9.132;2024-02-04T08:40:29;7.30;99.90
8178;DHT22;4130;48.740;9.132;2024-02-04T08:42:56;7.40;99.90
8178;DHT22;4130;48.740;9.132;2024-02-04T08:45:24;7.50;99.90
8178;DHT22;4130;48.740;9.132;2024-02-04T08:47:52;7.60;99.90
8178;DHT22;4130;48.740;9.132;2024-02-04T08:50:20;7.70;99.90
8178;DHT22;4130;48.740;9.132;2024-02-04T08:55:20;7.90;99.90
8178;DHT22;4130;48.740;9.132;2024-02-04T08:57:47;8.00;99.90
8178;DHT22;4130;48.740;9.132;2024-02-04T09:00:15;8.10;99.90
8178;DHT22;4130;48.740;9.132;2024-02-04T09:02:43;8.20;99.90
8178;DHT22;4130;48.740;9.132;2024-02-04T09:05:12;8.20;99.90
8178;DHT22;4130;48.740;9.132;2024-02-04T09:07:41;8.20;99.90
8178;DHT22;4130;48.740;9.132;2024-02-04T09:10:08;8.20;99.90
8178;DHT22;4130;48.740;9.132;2024-02-04T09:12:35;8.20;99.90
8178;DHT22;4130;48.740;9.132;2024-02-04T09:15:02;8.20;99.90
8178;DHT22;4130;48.740;9.132;2024-02-04T09:17:30;8.20;99.90
8178;DHT22;4130;48.740;9.132;2024-02-04T09:20:00;8.20;99.90
8178;DHT22;4130;48.740;9.132;2024-02-04T09:22:28;8.20;99.90
8178;DHT22;4130;48.740;9.132;2024-02-04T09:24:54;8.20;99.90
8178;DHT22;4130;48.740;9.132;2024-02-04T09:27:21;8.20;99.90
8178;DHT22;4130;48.740;9.132;2024-02-04T09:29:48;8.20;99.90
8178;DHT22;4130;48.740;9.132;2024-02-04T09:32:15;8.30;99.90
8178;DHT22;4130;48.740;9.132;2024-02-04T09:34:42;8.40;99.90
8178;DHT22;4130;48.740;9.132;2024-02-04T09:37:11;8.50;99.90
8178;DHT22;4130;48.740;9.132;2024-02-04T09:39:38;8.70;99.90
8178;DHT22;4130;48.740;9.132;2024-02-04T09:42:05;8.80;99.90
8178;DHT22;4130;48.740;9.132;2024-02-04T09:44:33;9.10;99.90
8178;DHT22;4130;48.740;9.132;2024-02-04T09:47:09;9.20;99.90
8178;DHT22;4130;48.740;9.132;2024-02-04T09:49:37;9.30;99.90
8178;DHT22;4130;48.740;9.132;2024-02-04T09:52:08;9.30;99.90
8178;DHT22;4130;48.740;9.132;2024-02-04T09:54:41;9.30;99.90
8178;DHT22;4130;48.740;9.132;2024-02-04T09:57:09;9.30;99.90
8178;DHT22;4130;48.740;9.132;2024-02-04T09:59:37;9.40;99.90
8178;DHT22;4130;48.740;9.132;2024-02-04T10:02:04;9.50;99.90
8178;DHT22;4130;48.740;9.132;2024-02-04T10:04:31;9.70;99.90
8178;DHT22;4130;48.740;9.132;2024-02-04T10:06:59;9.80;99.90
8178;DHT22;4130;48.740;9.132;2024-02-04T10:09:26;9.90;99.90
8178;DHT22;4130;48.740;9.132;2024-02-04T10:11:54;9.90;99.90
8178;DHT22;4130;48.740;9.132;2024-02-04T10:14:21;10.00;99.90
8178;DHT22;4130;48.740;9.132;2024-02-04T10:16:48;10.00;99.90
8178;DHT22;4130;48.740;9.132;2024-02-04T10:19:15;10.00;99.90
8178;DHT22;4130;48.740;9.132;2024-02-04T10:21:42;10.10;99.90
8178;DHT22;4130;48.740;9.132;2024-02-04T10:24:10;10.20;99.90
8178;DHT22;4130;48.740;9.132;2024-02-04T10:26:37;10.30;99.90
8178;DHT22;4130;48.740;9.132;2024-02-04T10:29:07;10.40;99.90
8178;DHT22;4130;48.740;9.132;2024-02-04T10:31:34;10.40;99.90
8178;DHT22;4130;48.740;9.132;2024-02-04T10:34:01;10.50;99.90
8178;DHT22;4130;48.740;9.132;2024-02-04T10:36:30;10.50;99.90
8178;DHT22;4130;48.740;9.132;2024-02-04T10:38:57;10.70;99.90
8178;DHT22;4130;48.740;9.132;2024-02-04T10:41:25;10.70;99.90
8178;DHT22;4130;48.740;9.132;2024-02-04T10:43:53;10.70;99.90
8178;DHT22;4130;48.740;9.132;2024-02-04T10:46:23;10.80;99.90
8178;DHT22;4130;48.740;9.132;2024-02-04T10:48:56;10.90;99.90
8178;DHT22;4130;48.740;9.132;2024-02-04T10:51:25;10.80;99.90
8178;DHT22;4130;48.740;9.132;2024-02-04T10:53:54;10.80;99.90
8178;DHT22;4130;48.740;9.132;2024-02-04T10:56:25;10.80;99.90
8178;DHT22;4130;48.740;9.132;2024-02-04T10:58:52;10.80;99.90
8178;DHT22;4130;48.740;9.132;2024-02-04T11:01:22;10.80;99.90
8178;DHT22;4130;48.740;9.132;2024-02-04T11:03:50;10.80;99.90
8178;DHT22;4130;48.740;9.132;2024-02-04T11:06:19;10.70;99.90
8178;DHT22;4130;48.740;9.132;2024-02-04T11:08:47;10.50;99.90
8178;DHT22;4130;48.740;9.132;2024-02-04T11:11:14;10.50;99.90
8178;DHT22;4130;48.740;9.132;2024-02-04T11:13:44;10.50;99.90
8178;DHT22;4130;48.740;9.132;2024-02-04T11:16:21;10.60;99.90
8178;DHT22;4130;48.740;9.132;2024-02-04T11:19:11;10.70;99.90
8178;DHT22;4130;48.740;9.132;2024-02-04T11:22:00;10.90;99.90
8178;DHT22;4130;48.740;9.132;2024-02-04T11:24:44;11.20;99.90
8178;DHT22;4130;48.740;9.132;2024-02-04T11:27:16;11.50;99.90
8178;DHT22;4130;48.740;9.132;2024-02-04T11:29:44;11.70;99.90
8178;DHT22;4130;48.740;9.132;2024-02-04T11:32:11;11.90;99.90
8178;DHT22;4130;48.740;9.132;2024-02-04T11:34:40;12.00;99.90
8178;DHT22;4130;48.740;9.132;2024-02-04T11:37:15;12.20;99.90
8178;DHT22;4130;48.740;9.132;2024-02-04T11:39:51;12.30;99.90
8178;DHT22;4130;48.740;9.132;2024-02-04T11:42:18;12.10;99.90
8178;DHT22;4130;48.740;9.132;2024-02-04T11:44:46;12.10;99.90
8178;DHT22;4130;48.740;9.132;2024-02-04T11:47:23;12.10;99.90
8178;DHT22;4130;48.740;9.132;2024-02-04T11:49:55;12.10;99.90
8178;DHT22;4130;48.740;9.132;2024-02-04T11:52:22;12.10;99.90
8178;DHT22;4130;48.740;9.132;2024-02-04T11:54:50;12.20;99.90
8178;DHT22;4130;48.740;9.132;2024-02-04T11:57:17;12.30;99.90
8178;DHT22;4130;48.740;9.132;2024-02-04T11:59:44;12.30;99.90
8178;DHT22;4130;48.740;9.132;2024-02-04T12:02:11;12.30;99.90
8178;DHT22;4130;48.740;9.132;2024-02-04T12:04:39;12.10;99.90
8178;DHT22;4130;48.740;9.132;2024-02-04T12:07:08;11.90;99.90
8178;DHT22;4130;48.740;9.132;2024-02-04T12:09:35;11.60;99.90
8178;DHT22;4130;48.740;9.132;2024-02-04T12:12:03;11.60;99.90
8178;DHT22;4130;48.740;9.132;2024-02-04T12:14:31;11.50;99.90
8178;DHT22;4130;48.740;9.132;2024-02-04T12:16:58;11.30;99.90
8178;DHT22;4130;48.740;9.132;2024-02-04T12:19:25;11.20;99.90
8178;DHT22;4130;48.740;9.132;2024-02-04T12:21:53;11.10;99.90
8178;DHT22;4130;48.740;9.132;2024-02-04T12:24:22;11.10;99.90
8178;DHT22;4130;48.740;9.132;2024-02-04T12:26:49;11.10;99.90
8178;DHT22;4130;48.740;9.132;2024-02-04T12:29:16;11.10;99.90
8178;DHT22;4130;48.740;9.132;2024-02-04T12:31:43;11.00;99.90
8178;DHT22;4130;48.740;9.132;2024-02-04T12:34:12;10.90;99.90
8178;DHT22;4130;48.740;9.132;2024-02-04T12:36:39;10.90;99.90
8178;DHT22;4130;48.740;9.132;2024-02-04T12:39:10;10.90;99.90
8178;DHT22;4130;48.740;9.132;2024-02-04T12:41:39;10.90;99.90
8178;DHT22;4130;48.740;9.132;2024-02-04T12:44:06;10.90;99.90
8178;DHT22;4130;48.740;9.132;2024-02-04T12:46:33;10.90;99.90
8178;DHT22;4130;48.740;9.132;2024-02-04T12:49:01;10.90;99.90
8178;DHT22;4130;48.740;9.132;2024-02-04T12:51:29;11.00;99.90
8178;DHT22;4130;48.740;9.132;2024-02-04T12:54:05;11.00;99.90
8178;DHT22;4130;48.740;9.132;2024-02-04T12:56:47;11.00;99.90
8178;DHT22;4130;48.740;9.132;2024-02-04T12:59:27;11.10;99.90
8178;DHT22;4130;48.740;9.132;2024-02-04T13:01:56;11.30;99.90
8178;DHT22;4130;48.740;9.132;2024-02-04T13:04:23;11.20;99.90
8178;DHT22;4130;48.740;9.132;2024-02-04T13:06:50;11.20;99.90
8178;DHT22;4130;48.740;9.132;2024-02-04T13:09:18;11.30;99.90
8178;DHT22;4130;48.740;9.132;2024-02-04T13:11:46;11.40;99.90
8178;DHT22;4130;48.740;9.132;2024-02-04T13:14:13;11.60;99.90
8178;DHT22;4130;48.740;9.132;2024-02-04T13:16:41;11.60;99.90
8178;DHT22;4130;48.740;9.132;2024-02-04T13:19:08;11.70;99.90
8178;DHT22;4130;48.740;9.132;2024-02-04T13:21:35;11.60;99.90
8178;DHT22;4130;48.740;9.132;2024-02-04T13:24:02;11.60;99.90
8178;DHT22;4130;48.740;9.132;2024-02-04T13:26:29;11.40;99.90
8178;DHT22;4130;48.740;9.132;2024-02-04T13:28:58;11.40;99.90
8178;DHT22;4130;48.740;9.132;2024-02-04T13:31:25;11.40;99.90
8178;DHT22;4130;48.740;9.132;2024-02-04T13:33:54;11.30;99.90
8178;DHT22;4130;48.740;9.132;2024-02-04T13:36:21;11.30;99.90
8178;DHT22;4130;48.740;9.132;2024-02-04T13:38:49;11.30;99.90
8178;DHT22;4130;48.740;9.132;2024-02-04T13:41:16;11.20;99.90
8178;DHT22;4130;48.740;9.132;2024-02-04T13:43:43;11.20;99.90
8178;DHT22;4130;48.740;9.132;2024-02-04T13:46:11;11.20;99.90
8178;DHT22;4130;48.740;9.132;2024-02-04T13:48:38;11.00;99.90
8178;DHT22;4130;48.740;9.132;2024-02-04T13:51:06;10.90;99.90
8178;DHT22;4130;48.740;9.132;2024-02-04T13:53:33;10.90;99.90
8178;DHT22;4130;48.740;9.132;2024-02-04T13:56:01;11.00;99.90
8178;DHT22;4130;48.740;9.132;2024-02-04T13:58:28;11.00;99.90
8178;DHT22;4130;48.740;9.132;2024-02-04T14:00:55;11.10;99.90
8178;DHT22;4130;48.740;9.132;2024-02-04T14:03:23;11.00;99.90
8178;DHT22;4130;48.740;9.132;2024-02-04T14:05:50;11.00;99.90
8178;DHT22;4130;48.740;9.132;2024-02-04T14:08:18;10.90;99.90
8178;DHT22;4130;48.740;9.132;2024-02-04T14:10:45;10.90;99.90
8178;DHT22;4130;48.740;9.132;2024-02-04T14:13:12;10.80;99.90
8178;DHT22;4130;48.740;9.132;2024-02-04T14:15:39;10.60;99.90
8178;DHT22;4130;48.740;9.132;2024-02-04T14:18:07;10.60;99.90
8178;DHT22;4130;48.740;9.132;2024-02-04T14:20:35;10.50;99.90
8178;DHT22;4130;48.740;9.132;2024-02-04T14:23:02;10.50;99.90
8178;DHT22;4130;48.740;9.132;2024-02-04T14:25:29;10.40;99.90
8178;DHT22;4130;48.740;9.132;2024-02-04T14:27:56;10.40;99.90
8178;DHT22;4130;48.740;9.132;2024-02-04T14:30:23;10.30;99.90
8178;DHT22;4130;48.740;9.132;2024-02-04T14:32:50;10.40;99.90
8178;DHT22;4130;48.740;9.132;2024-02-04T14:35:17;10.30;99.90
8178;DHT22;4130;48.740;9.132;2024-02-04T14:37:46;10.30;99.90
8178;DHT22;4130;48.740;9.132;2024-02-04T14:40:13;10.20;99.90
8178;DHT22;4130;48.740;9.132;2024-02-04T14:42:40;10.20;99.90
8178;DHT22;4130;48.740;9.132;2024-02-04T14:45:08;10.10;99.90
8178;DHT22;4130;48.740;9.132;2024-02-04T14:47:36;10.10;99.90
8178;DHT22;4130;48.740;9.132;2024-02-04T14:50:04;10.10;99.90
8178;DHT22;4130;48.740;9.132;2024-02-04T14:52:31;10.10;99.90
8178;DHT22;4130;48.740;9.132;2024-02-04T14:54:59;10.10;99.90
8178;DHT22;4130;48.740;9.132;2024-02-04T14:57:30;10.20;99.90
8178;DHT22;4130;48.740;9.132;2024-02-04T14:59:57;10.10;99.90
8178;DHT22;4130;48.740;9.132;2024-02-04T15:02:24;10.10;99.90
8178;DHT22;4130;48.740;9.132;2024-02-04T15:04:51;10.00;99.90
8178;DHT22;4130;48.740;9.132;2024-02-04T15:07:19;10.00;99.90
8178;DHT22;4130;48.740;9.132;2024-02-04T15:09:46;10.00;99.90
8178;DHT22;4130;48.740;9.132;2024-02-04T15:12:18;10.00;99.90
8178;DHT22;4130;48.740;9.132;2024-02-04T15:14:45;9.90;99.90
8178;DHT22;4130;48.740;9.132;2024-02-04T15:17:13;9.90;99.90
8178;DHT22;4130;48.740;9.132;2024-02-04T15:19:40;9.90;99.90
8178;DHT22;4130;48.740;9.132;2024-02-04T15:22:08;9.90;99.90
8178;DHT22;4130;48.740;9.132;2024-02-04T15:24:35;9.80;99.90
8178;DHT22;4130;48.740;9.132;2024-02-04T15:27:03;9.80;99.90
8178;DHT22;4130;48.740;9.132;2024-02-04T15:29:34;9.80;99.90
8178;DHT22;4130;48.740;9.132;2024-02-04T15:32:02;9.80;99.90
8178;DHT22;4130;48.740;9.132;2024-02-04T15:34:30;9.80;99.90
8178;DHT22;4130;48.740;9.132;2024-02-04T15:36:58;9.70;99.90
8178;DHT22;4130;48.740;9.132;2024-02-04T15:39:25;9.70;99.90
8178;DHT22;4130;48.740;9.132;2024-02-04T15:41:52;9.60;99.90
8178;DHT22;4130;48.740;9.132;2024-02-04T15:44:19;9.60;99.90
8178;DHT22;4130;48.740;9.132;2024-02-04T15:46:49;9.50;99.90
8178;DHT22;4130;48.740;9.132;2024-02-04T15:49:19;9.40;99.90
8178;DHT22;4130;48.740;9.132;2024-02-04T15:51:50;9.30;99.90
8178;DHT22;4130;48.740;9.132;2024-02-04T15:54:18;9.30;99.90
8178;DHT22;4130;48.740;9.132;2024-02-04T15:56:51;9.20;99.90
8178;DHT22;4130;48.740;9.132;2024-02-04T15:59:24;9.10;99.90
8178;DHT22;4130;48.740;9.132;2024-02-04T16:01:53;9.10;99.90
8178;DHT22;4130;48.740;9.132;2024-02-04T16:04:21;9.00;99.90
8178;DHT22;4130;48.740;9.132;2024-02-04T16:06:49;9.00;99.90
8178;DHT22;4130;48.740;9.132;2024-02-04T16:09:16;9.00;99.90
8178;DHT22;4130;48.740;9.132;2024-02-04T16:11:51;9.00;99.90
8178;DHT22;4130;48.740;9.132;2024-02-04T16:14:23;9.00;99.90
8178;DHT22;4130;48.740;9.132;2024-02-04T16:16:59;9.00;99.90
8178;DHT22;4130;48.740;9.132;2024-02-04T16:19:29;8.90;99.90
8178;DHT22;4130;48.740;9.132;2024-02-04T16:21:56;8.90;99.90